sensor_id;sensor_type;location;lat;lon;timestamp;P1;durP1;ratioP1;P2;durP2;ratioP2
12286;SDS011;6206;53.100;11.098;2022-10-16T00:00:38;5.07;;;2.20;;
12286;SDS011;6206;53.100;11.098;2022-10-16T00:03:06;2.50;;;2.10;;
12286;SDS011;6206;53.100;11.098;2022-10-16T00:05:37;3.27;;;2.00;;
12286;SDS011;6206;53.100;11.098;2022-10-16T00:08:06;2.03;;;1.70;;
12286;SDS011;6206;53.100;11.098;2022-10-16T00:10:34;2.22;;;1.80;;
12286;SDS011;6206;53.100;11.098;2022-10-16T00:13:02;2.25;;;1.75;;
12286;SDS011;6206;53.100;11.098;2022-10-16T00:15:29;3.10;;;1.97;;
12286;SDS011;6206;53.100;11.098;2022-10-16T00:17:56;2.72;;;1.80;;
12286;SDS011;6206;53.100;11.098;2022-10-16T00:20:23;3.70;;;2.00;;
12286;SDS011;6206;53.100;11.098;2022-10-16T00:22:50;3.58;;;2.05;;
12286;SDS011;6206;53.100;11.098;2022-10-16T00:25:16;2.20;;;1.85;;
12286;SDS011;6206;53.100;11.098;2022-10-16T00:27:43;2.15;;;1.92;;
12286;SDS011;6206;53.100;11.098;2022-10-16T00:30:11;2.30;;;1.90;;
12286;SDS011;6206;53.100;11.098;2022-10-16T00:32:38;4.10;;;1.80;;
12286;SDS011;6206;53.100;11.098;2022-10-16T00:35:05;3.47;;;1.85;;
12286;SDS011;6206;53.100;11.098;2022-10-16T00:37:32;2.33;;;1.80;;
12286;SDS011;6206;53.100;11.098;2022-10-16T00:39:59;3.28;;;1.60;;
12286;SDS011;6206;53.100;11.098;2022-10-16T00:42:25;3.22;;;1.77;;
12286;SDS011;6206;53.100;11.098;2022-10-16T00:44:53;3.25;;;1.60;;
12286;SDS011;6206;53.100;11.098;2022-10-16T00:47:24;3.00;;;1.60;;
12286;SDS011;6206;53.100;11.098;2022-10-16T00:49:56;1.90;;;1.60;;
12286;SDS011;6206;53.100;11.098;2022-10-16T00:52:26;4.63;;;1.73;;
12286;SDS011;6206;53.100;11.098;2022-10-16T00:54:53;3.90;;;1.80;;
12286;SDS011;6206;53.100;11.098;2022-10-16T00:57:21;2.40;;;1.83;;
12286;SDS011;6206;53.100;11.098;2022-10-16T00:59:48;2.10;;;1.70;;
12286;SDS011;6206;53.100;11.098;2022-10-16T01:02:15;2.50;;;1.70;;
12286;SDS011;6206;53.100;11.098;2022-10-16T01:04:45;2.22;;;1.60;;
12286;SDS011;6206;53.100;11.098;2022-10-16T01:07:16;3.40;;;1.67;;
12286;SDS011;6206;53.100;11.098;2022-10-16T01:09:57;2.60;;;1.63;;
12286;SDS011;6206;53.100;11.098;2022-10-16T01:12:32;2.83;;;2.10;;
12286;SDS011;6206;53.100;11.098;2022-10-16T01:15:08;2.90;;;2.13;;
12286;SDS011;6206;53.100;11.098;2022-10-16T01:17:41;2.70;;;1.90;;
12286;SDS011;6206;53.100;11.098;2022-10-16T01:20:14;2.95;;;1.90;;
12286;SDS011;6206;53.100;11.098;2022-10-16T01:22:53;2.80;;;1.63;;
12286;SDS011;6206;53.100;11.098;2022-10-16T01:25:30;2.28;;;1.55;;
12286;SDS011;6206;53.100;11.098;2022-10-16T01:28:07;2.03;;;1.50;;
12286;SDS011;6206;53.100;11.098;2022-10-16T01:30:37;2.80;;;1.70;;
12286;SDS011;6206;53.100;11.098;2022-10-16T01:33:06;3.53;;;1.70;;
12286;SDS011;6206;53.100;11.098;2022-10-16T01:35:38;1.85;;;1.50;;
12286;SDS011;6206;53.100;11.098;2022-10-16T01:38:10;1.95;;;1.40;;
12286;SDS011;6206;53.100;11.098;2022-10-16T01:40:43;1.92;;;1.60;;
12286;SDS011;6206;53.100;11.098;2022-10-16T01:43:14;2.50;;;1.40;;
12286;SDS011;6206;53.100;11.098;2022-10-16T01:45:43;2.88;;;1.55;;
12286;SDS011;6206;53.100;11.098;2022-10-16T01:48:12;2.05;;;1.40;;
12286;SDS011;6206;53.100;11.098;2022-10-16T01:50:41;2.63;;;1.40;;
12286;SDS011;6206;53.100;11.098;2022-10-16T01:53:11;3.03;;;1.50;;
12286;SDS011;6206;53.100;11.098;2022-10-16T01:55:41;2.30;;;1.60;;
12286;SDS011;6206;53.100;11.098;2022-10-16T01:58:12;2.60;;;1.50;;
12286;SDS011;6206;53.100;11.098;2022-10-16T02:00:42;1.92;;;1.50;;
12286;SDS011;6206;53.100;11.098;2022-10-16T02:03:11;1.92;;;1.30;;
12286;SDS011;6206;53.100;11.098;2022-10-16T02:05:40;3.60;;;1.40;;
12286;SDS011;6206;53.100;11.098;2022-10-16T02:08:11;3.30;;;1.40;;
12286;SDS011;6206;53.100;11.098;2022-10-16T02:10:38;2.10;;;1.17;;
12286;SDS011;6206;53.100;11.098;2022-10-16T02:13:06;2.90;;;1.60;;
12286;SDS011;6206;53.100;11.098;2022-10-16T02:15:38;2.53;;;1.50;;
12286;SDS011;6206;53.100;11.098;2022-10-16T02:18:05;1.80;;;1.40;;
12286;SDS011;6206;53.100;11.098;2022-10-16T02:20:34;3.30;;;1.70;;
12286;SDS011;6206;53.100;11.098;2022-10-16T02:23:06;3.08;;;1.90;;
12286;SDS011;6206;53.100;11.098;2022-10-16T02:25:39;2.50;;;1.50;;
12286;SDS011;6206;53.100;11.098;2022-10-16T02:28:10;2.90;;;1.50;;
12286;SDS011;6206;53.100;11.098;2022-10-16T02:30:44;2.45;;;1.55;;
12286;SDS011;6206;53.100;11.098;2022-10-16T02:33:15;2.42;;;1.50;;
12286;SDS011;6206;53.100;11.098;2022-10-16T02:35:44;2.75;;;1.45;;
12286;SDS011;6206;53.100;11.098;2022-10-16T02:38:13;4.93;;;1.58;;
12286;SDS011;6206;53.100;11.098;2022-10-16T02:40:42;3.50;;;1.65;;
12286;SDS011;6206;53.100;11.098;2022-10-16T02:43:08;3.05;;;1.50;;
12286;SDS011;6206;53.100;11.098;2022-10-16T02:45:36;2.00;;;1.58;;
12286;SDS011;6206;53.100;11.098;2022-10-16T02:48:05;1.50;;;1.40;;
12286;SDS011;6206;53.100;11.098;2022-10-16T02:50:32;1.52;;;1.10;;
12286;SDS011;6206;53.100;11.098;2022-10-16T02:52:58;1.52;;;1.40;;
12286;SDS011;6206;53.100;11.098;2022-10-16T02:55:25;3.58;;;1.60;;
12286;SDS011;6206;53.100;11.098;2022-10-16T02:57:53;2.55;;;1.50;;
12286;SDS011;6206;53.100;11.098;2022-10-16T03:00:21;2.43;;;1.57;;
12286;SDS011;6206;53.100;11.098;2022-10-16T03:02:47;2.10;;;1.50;;
12286;SDS011;6206;53.100;11.098;2022-10-16T03:05:16;2.50;;;1.47;;
12286;SDS011;6206;53.100;11.098;2022-10-16T03:07:43;2.00;;;1.15;;
12286;SDS011;6206;53.100;11.098;2022-10-16T03:10:09;2.25;;;1.30;;
12286;SDS011;6206;53.100;11.098;2022-10-16T03:12:36;1.42;;;1.30;;
12286;SDS011;6206;53.100;11.098;2022-10-16T03:15:06;2.00;;;1.40;;
12286;SDS011;6206;53.100;11.098;2022-10-16T03:17:34;1.75;;;1.40;;
12286;SDS011;6206;53.100;11.098;2022-10-16T03:20:00;2.05;;;1.30;;
12286;SDS011;6206;53.100;11.098;2022-10-16T03:22:29;4.18;;;1.50;;
12286;SDS011;6206;53.100;11.098;2022-10-16T03:24:55;5.22;;;1.58;;
12286;SDS011;6206;53.100;11.098;2022-10-16T03:27:22;3.08;;;1.48;;
12286;SDS011;6206;53.100;11.098;2022-10-16T03:29:49;3.17;;;1.40;;
12286;SDS011;6206;53.100;11.098;2022-10-16T03:32:15;2.55;;;1.45;;
12286;SDS011;6206;53.100;11.098;2022-10-16T03:34:43;2.25;;;1.40;;
12286;SDS011;6206;53.100;11.098;2022-10-16T03:37:10;3.35;;;1.45;;
12286;SDS011;6206;53.100;11.098;2022-10-16T03:39:38;2.42;;;1.30;;
12286;SDS011;6206;53.100;11.098;2022-10-16T03:42:05;2.35;;;1.40;;
12286;SDS011;6206;53.100;11.098;2022-10-16T03:44:32;3.03;;;1.60;;
12286;SDS011;6206;53.100;11.098;2022-10-16T03:46:58;2.30;;;1.50;;
12286;SDS011;6206;53.100;11.098;2022-10-16T03:49:25;1.90;;;1.50;;
12286;SDS011;6206;53.100;11.098;2022-10-16T03:51:52;3.17;;;1.50;;
12286;SDS011;6206;53.100;11.098;2022-10-16T03:54:18;3.30;;;1.55;;
12286;SDS011;6206;53.100;11.098;2022-10-16T03:56:48;3.03;;;1.30;;
12286;SDS011;6206;53.100;11.098;2022-10-16T03:59:15;2.78;;;1.33;;
12286;SDS011;6206;53.100;11.098;2022-10-16T04:01:42;2.40;;;1.50;;
12286;SDS011;6206;53.100;11.098;2022-10-16T04:04:08;2.47;;;1.40;;
12286;SDS011;6206;53.100;11.098;2022-10-16T04:06:35;3.38;;;1.40;;
12286;SDS011;6206;53.100;11.098;2022-10-16T04:09:02;2.90;;;1.50;;
12286;SDS011;6206;53.100;11.098;2022-10-16T04:11:29;3.58;;;1.48;;
12286;SDS011;6206;53.100;11.098;2022-10-16T04:13:57;4.00;;;1.45;;
12286;SDS011;6206;53.100;11.098;2022-10-16T04:16:23;1.90;;;1.47;;
12286;SDS011;6206;53.100;11.098;2022-10-16T04:18:50;2.65;;;1.60;;
12286;SDS011;6206;53.100;11.098;2022-10-16T04:21:17;3.53;;;1.40;;
12286;SDS011;6206;53.100;11.098;2022-10-16T04:23:44;2.00;;;1.30;;
12286;SDS011;6206;53.100;11.098;2022-10-16T04:26:10;1.48;;;1.23;;
12286;SDS011;6206;53.100;11.098;2022-10-16T04:28:37;1.98;;;1.30;;
12286;SDS011;6206;53.100;11.098;2022-10-16T04:31:05;2.17;;;1.25;;
12286;SDS011;6206;53.100;11.098;2022-10-16T04:33:32;1.90;;;1.35;;
12286;SDS011;6206;53.100;11.098;2022-10-16T04:36:00;2.72;;;1.33;;
12286;SDS011;6206;53.100;11.098;2022-10-16T04:38:27;2.47;;;1.38;;
12286;SDS011;6206;53.100;11.098;2022-10-16T04:40:54;1.95;;;1.30;;
12286;SDS011;6206;53.100;11.098;2022-10-16T04:43:21;3.83;;;1.50;;
12286;SDS011;6206;53.100;11.098;2022-10-16T04:45:49;3.05;;;1.40;;
12286;SDS011;6206;53.100;11.098;2022-10-16T04:48:18;2.50;;;1.20;;
12286;SDS011;6206;53.100;11.098;2022-10-16T04:50:44;2.90;;;1.45;;
12286;SDS011;6206;53.100;11.098;2022-10-16T04:53:11;2.10;;;1.30;;
12286;SDS011;6206;53.100;11.098;2022-10-16T04:55:38;2.10;;;1.40;;
12286;SDS011;6206;53.100;11.098;2022-10-16T04:58:07;4.05;;;1.30;;
12286;SDS011;6206;53.100;11.098;2022-10-16T05:00:34;4.30;;;1.50;;
12286;SDS011;6206;53.100;11.098;2022-10-16T05:03:01;4.25;;;1.60;;
12286;SDS011;6206;53.100;11.098;2022-10-16T05:05:32;2.13;;;1.37;;
12286;SDS011;6206;53.100;11.098;2022-10-16T05:07:59;3.28;;;1.50;;
12286;SDS011;6206;53.100;11.098;2022-10-16T05:10:26;5.47;;;1.67;;
12286;SDS011;6206;53.100;11.098;2022-10-16T05:12:53;3.25;;;1.45;;
12286;SDS011;6206;53.100;11.098;2022-10-16T05:15:20;2.72;;;1.40;;
12286;SDS011;6206;53.100;11.098;2022-10-16T05:17:51;4.53;;;1.70;;
12286;SDS011;6206;53.100;11.098;2022-10-16T05:20:18;2.78;;;1.20;;
12286;SDS011;6206;53.100;11.098;2022-10-16T05:22:46;3.47;;;1.55;;
12286;SDS011;6206;53.100;11.098;2022-10-16T05:25:13;4.82;;;1.50;;
12286;SDS011;6206;53.100;11.098;2022-10-16T05:27:40;2.72;;;1.40;;
12286;SDS011;6206;53.100;11.098;2022-10-16T05:30:07;3.38;;;1.52;;
12286;SDS011;6206;53.100;11.098;2022-10-16T05:32:34;1.90;;;1.27;;
12286;SDS011;6206;53.100;11.098;2022-10-16T05:35:01;2.83;;;1.60;;
12286;SDS011;6206;53.100;11.098;2022-10-16T05:37:28;3.40;;;1.50;;
12286;SDS011;6206;53.100;11.098;2022-10-16T05:39:56;4.32;;;1.70;;
12286;SDS011;6206;53.100;11.098;2022-10-16T05:42:23;2.75;;;1.60;;
12286;SDS011;6206;53.100;11.098;2022-10-16T05:44:49;2.83;;;1.88;;
12286;SDS011;6206;53.100;11.098;2022-10-16T05:47:16;2.40;;;1.50;;
12286;SDS011;6206;53.100;11.098;2022-10-16T05:49:45;2.60;;;1.60;;
12286;SDS011;6206;53.100;11.098;2022-10-16T05:52:12;3.92;;;1.75;;
12286;SDS011;6206;53.100;11.098;2022-10-16T05:54:39;5.63;;;1.80;;
12286;SDS011;6206;53.100;11.098;2022-10-16T05:57:07;5.10;;;1.75;;
12286;SDS011;6206;53.100;11.098;2022-10-16T05:59:34;3.47;;;1.67;;
12286;SDS011;6206;53.100;11.098;2022-10-16T06:02:00;2.97;;;1.70;;
12286;SDS011;6206;53.100;11.098;2022-10-16T06:04:27;3.60;;;1.70;;
12286;SDS011;6206;53.100;11.098;2022-10-16T06:06:54;2.42;;;1.70;;
12286;SDS011;6206;53.100;11.098;2022-10-16T06:09:25;2.50;;;1.60;;
12286;SDS011;6206;53.100;11.098;2022-10-16T06:11:52;4.03;;;1.70;;
12286;SDS011;6206;53.100;11.098;2022-10-16T06:14:20;3.90;;;1.80;;
12286;SDS011;6206;53.100;11.098;2022-10-16T06:16:47;4.95;;;1.67;;
12286;SDS011;6206;53.100;11.098;2022-10-16T06:19:14;2.13;;;1.80;;
12286;SDS011;6206;53.100;11.098;2022-10-16T06:21:41;2.70;;;1.65;;
12286;SDS011;6206;53.100;11.098;2022-10-16T06:24:08;2.30;;;1.63;;
12286;SDS011;6206;53.100;11.098;2022-10-16T06:26:35;3.72;;;1.85;;
12286;SDS011;6206;53.100;11.098;2022-10-16T06:29:03;2.87;;;1.83;;
12286;SDS011;6206;53.100;11.098;2022-10-16T06:31:31;3.42;;;1.70;;
12286;SDS011;6206;53.100;11.098;2022-10-16T06:33:58;2.20;;;1.70;;
12286;SDS011;6206;53.100;11.098;2022-10-16T06:36:25;3.50;;;1.90;;
12286;SDS011;6206;53.100;11.098;2022-10-16T06:38:52;3.40;;;1.80;;
12286;SDS011;6206;53.100;11.098;2022-10-16T06:41:20;2.90;;;1.70;;
12286;SDS011;6206;53.100;11.098;2022-10-16T06:43:48;2.40;;;1.80;;
12286;SDS011;6206;53.100;11.098;2022-10-16T06:46:16;2.95;;;1.98;;
12286;SDS011;6206;53.100;11.098;2022-10-16T06:48:46;3.47;;;1.80;;
12286;SDS011;6206;53.100;11.098;2022-10-16T06:51:13;2.60;;;1.92;;
12286;SDS011;6206;53.100;11.098;2022-10-16T06:53:42;6.50;;;2.00;;
12286;SDS011;6206;53.100;11.098;2022-10-16T06:56:10;2.70;;;2.08;;
12286;SDS011;6206;53.100;11.098;2022-10-16T06:58:38;3.77;;;2.00;;
12286;SDS011;6206;53.100;11.098;2022-10-16T07:01:05;2.67;;;1.80;;
12286;SDS011;6206;53.100;11.098;2022-10-16T07:03:32;4.07;;;2.03;;
12286;SDS011;6206;53.100;11.098;2022-10-16T07:06:03;4.03;;;1.77;;
12286;SDS011;6206;53.100;11.098;2022-10-16T07:08:31;3.60;;;2.08;;
12286;SDS011;6206;53.100;11.098;2022-10-16T07:10:59;3.80;;;1.60;;
12286;SDS011;6206;53.100;11.098;2022-10-16T07:13:26;3.50;;;1.90;;
12286;SDS011;6206;53.100;11.098;2022-10-16T07:15:52;2.80;;;1.65;;
12286;SDS011;6206;53.100;11.098;2022-10-16T07:18:19;4.47;;;1.85;;
12286;SDS011;6206;53.100;11.098;2022-10-16T07:20:46;3.00;;;1.90;;
12286;SDS011;6206;53.100;11.098;2022-10-16T07:23:14;4.38;;;1.80;;
12286;SDS011;6206;53.100;11.098;2022-10-16T07:25:41;3.40;;;1.80;;
12286;SDS011;6206;53.100;11.098;2022-10-16T07:28:08;4.82;;;1.90;;
12286;SDS011;6206;53.100;11.098;2022-10-16T07:30:35;3.55;;;1.80;;
12286;SDS011;6206;53.100;11.098;2022-10-16T07:33:03;5.10;;;1.90;;
12286;SDS011;6206;53.100;11.098;2022-10-16T07:35:29;3.03;;;1.80;;
12286;SDS011;6206;53.100;11.098;2022-10-16T07:37:56;5.57;;;2.72;;
12286;SDS011;6206;53.100;11.098;2022-10-16T07:40:24;3.15;;;1.60;;
12286;SDS011;6206;53.100;11.098;2022-10-16T07:42:52;3.15;;;1.83;;
12286;SDS011;6206;53.100;11.098;2022-10-16T07:45:18;1.83;;;1.50;;
12286;SDS011;6206;53.100;11.098;2022-10-16T07:47:45;2.25;;;1.60;;
12286;SDS011;6206;53.100;11.098;2022-10-16T07:50:12;5.72;;;1.85;;
12286;SDS011;6206;53.100;11.098;2022-10-16T07:52:39;2.78;;;1.88;;
12286;SDS011;6206;53.100;11.098;2022-10-16T07:55:06;3.47;;;1.73;;
12286;SDS011;6206;53.100;11.098;2022-10-16T07:57:34;5.75;;;1.92;;
12286;SDS011;6206;53.100;11.098;2022-10-16T08:00:02;3.25;;;2.00;;
12286;SDS011;6206;53.100;11.098;2022-10-16T08:02:29;3.50;;;1.70;;
12286;SDS011;6206;53.100;11.098;2022-10-16T08:04:57;4.25;;;2.40;;
12286;SDS011;6206;53.100;11.098;2022-10-16T08:07:23;2.70;;;1.80;;
12286;SDS011;6206;53.100;11.098;2022-10-16T08:09:50;2.33;;;1.80;;
12286;SDS011;6206;53.100;11.098;2022-10-16T08:12:17;3.03;;;1.70;;
12286;SDS011;6206;53.100;11.098;2022-10-16T08:14:45;3.50;;;1.75;;
12286;SDS011;6206;53.100;11.098;2022-10-16T08:17:13;1.70;;;1.60;;
12286;SDS011;6206;53.100;11.098;2022-10-16T08:19:43;3.08;;;1.88;;
12286;SDS011;6206;53.100;11.098;2022-10-16T08:22:10;3.15;;;1.70;;
12286;SDS011;6206;53.100;11.098;2022-10-16T08:24:37;5.32;;;1.60;;
12286;SDS011;6206;53.100;11.098;2022-10-16T08:27:04;3.55;;;1.90;;
12286;SDS011;6206;53.100;11.098;2022-10-16T08:29:31;4.38;;;1.80;;
12286;SDS011;6206;53.100;11.098;2022-10-16T08:31:59;4.78;;;2.00;;
12286;SDS011;6206;53.100;11.098;2022-10-16T08:34:25;4.50;;;1.80;;
12286;SDS011;6206;53.100;11.098;2022-10-16T08:36:52;4.25;;;1.75;;
12286;SDS011;6206;53.100;11.098;2022-10-16T08:39:19;2.63;;;1.90;;
12286;SDS011;6206;53.100;11.098;2022-10-16T08:41:59;6.90;;;2.28;;
12286;SDS011;6206;53.100;11.098;2022-10-16T08:44:57;3.58;;;1.80;;
12286;SDS011;6206;53.100;11.098;2022-10-16T08:47:45;2.92;;;1.60;;
12286;SDS011;6206;53.100;11.098;2022-10-16T08:50:18;2.47;;;1.97;;
12286;SDS011;6206;53.100;11.098;2022-10-16T08:52:49;1.70;;;1.55;;
12286;SDS011;6206;53.100;11.098;2022-10-16T08:55:19;3.30;;;1.80;;
12286;SDS011;6206;53.100;11.098;2022-10-16T08:57:58;3.83;;;1.55;;
12286;SDS011;6206;53.100;11.098;2022-10-16T09:00:25;4.15;;;1.48;;
12286;SDS011;6206;53.100;11.098;2022-10-16T09:02:56;1.92;;;1.42;;
12286;SDS011;6206;53.100;11.098;2022-10-16T09:08:18;3.35;;;1.45;;
12286;SDS011;6206;53.100;11.098;2022-10-16T09:10:55;3.45;;;1.55;;
12286;SDS011;6206;53.100;11.098;2022-10-16T09:13:26;2.85;;;1.50;;
12286;SDS011;6206;53.100;11.098;2022-10-16T09:15:58;1.55;;;1.20;;
12286;SDS011;6206;53.100;11.098;2022-10-16T09:18:39;1.45;;;1.10;;
12286;SDS011;6206;53.100;11.098;2022-10-16T09:21:13;2.30;;;1.30;;
12286;SDS011;6206;53.100;11.098;2022-10-16T09:23:44;2.42;;;1.25;;
12286;SDS011;6206;53.100;11.098;2022-10-16T09:26:12;2.80;;;0.90;;
12286;SDS011;6206;53.100;11.098;2022-10-16T09:28:40;1.60;;;0.93;;
12286;SDS011;6206;53.100;11.098;2022-10-16T09:31:10;1.52;;;1.10;;
12286;SDS011;6206;53.100;11.098;2022-10-16T09:33:43;2.92;;;0.82;;
12286;SDS011;6206;53.100;11.098;2022-10-16T09:36:14;6.15;;;5.10;;
12286;SDS011;6206;53.100;11.098;2022-10-16T09:38:41;8.48;;;5.38;;
12286;SDS011;6206;53.100;11.098;2022-10-16T09:41:13;1.70;;;1.58;;
12286;SDS011;6206;53.100;11.098;2022-10-16T09:43:46;1.77;;;1.30;;
12286;SDS011;6206;53.100;11.098;2022-10-16T09:46:24;1.83;;;1.10;;
12286;SDS011;6206;53.100;11.098;2022-10-16T09:48:55;2.72;;;1.10;;
12286;SDS011;6206;53.100;11.098;2022-10-16T09:51:24;1.38;;;1.02;;
12286;SDS011;6206;53.100;11.098;2022-10-16T09:53:56;1.90;;;1.13;;
12286;SDS011;6206;53.100;11.098;2022-10-16T09:56:26;1.40;;;0.87;;
12286;SDS011;6206;53.100;11.098;2022-10-16T09:58:56;2.00;;;0.90;;
12286;SDS011;6206;53.100;11.098;2022-10-16T10:01:26;1.13;;;1.00;;
12286;SDS011;6206;53.100;11.098;2022-10-16T10:03:58;2.67;;;0.70;;
12286;SDS011;6206;53.100;11.098;2022-10-16T10:06:29;1.25;;;0.75;;
12286;SDS011;6206;53.100;11.098;2022-10-16T10:08:59;2.42;;;0.80;;
12286;SDS011;6206;53.100;11.098;2022-10-16T10:11:37;2.05;;;0.80;;
12286;SDS011;6206;53.100;11.098;2022-10-16T10:14:06;2.78;;;0.98;;
12286;SDS011;6206;53.100;11.098;2022-10-16T10:16:40;1.02;;;0.80;;
12286;SDS011;6206;53.100;11.098;2022-10-16T10:19:09;0.77;;;0.50;;
12286;SDS011;6206;53.100;11.098;2022-10-16T10:21:40;3.40;;;0.77;;
12286;SDS011;6206;53.100;11.098;2022-10-16T10:24:09;1.52;;;0.90;;
12286;SDS011;6206;53.100;11.098;2022-10-16T10:26:37;2.10;;;0.90;;
12286;SDS011;6206;53.100;11.098;2022-10-16T10:29:09;2.53;;;0.75;;
12286;SDS011;6206;53.100;11.098;2022-10-16T10:31:43;2.78;;;0.90;;
12286;SDS011;6206;53.100;11.098;2022-10-16T10:34:21;1.30;;;0.80;;
12286;SDS011;6206;53.100;11.098;2022-10-16T10:36:59;1.58;;;0.75;;
12286;SDS011;6206;53.100;11.098;2022-10-16T10:39:31;1.45;;;0.80;;
12286;SDS011;6206;53.100;11.098;2022-10-16T10:42:13;1.05;;;0.80;;
12286;SDS011;6206;53.100;11.098;2022-10-16T10:44:52;0.60;;;0.60;;
12286;SDS011;6206;53.100;11.098;2022-10-16T10:47:29;1.80;;;0.90;;
12286;SDS011;6206;53.100;11.098;2022-10-16T10:50:05;2.15;;;0.75;;
12286;SDS011;6206;53.100;11.098;2022-10-16T10:52:41;2.17;;;0.93;;
12286;SDS011;6206;53.100;11.098;2022-10-16T10:55:19;1.45;;;0.73;;
12286;SDS011;6206;53.100;11.098;2022-10-16T10:58:05;1.35;;;0.75;;
12286;SDS011;6206;53.100;11.098;2022-10-16T11:00:47;0.95;;;0.47;;
12286;SDS011;6206;53.100;11.098;2022-10-16T11:03:24;1.45;;;0.70;;
12286;SDS011;6206;53.100;11.098;2022-10-16T11:06:04;1.65;;;0.60;;
12286;SDS011;6206;53.100;11.098;2022-10-16T11:08:34;1.00;;;0.90;;
12286;SDS011;6206;53.100;11.098;2022-10-16T11:11:06;1.33;;;0.70;;
12286;SDS011;6206;53.100;11.098;2022-10-16T11:13:38;2.60;;;0.60;;
12286;SDS011;6206;53.100;11.098;2022-10-16T11:16:15;2.25;;;0.70;;
12286;SDS011;6206;53.100;11.098;2022-10-16T11:18:47;2.27;;;0.90;;
12286;SDS011;6206;53.100;11.098;2022-10-16T11:21:22;2.10;;;0.95;;
12286;SDS011;6206;53.100;11.098;2022-10-16T11:23:51;1.80;;;0.73;;
12286;SDS011;6206;53.100;11.098;2022-10-16T11:26:24;2.60;;;0.70;;
12286;SDS011;6206;53.100;11.098;2022-10-16T11:28:53;2.50;;;0.70;;
12286;SDS011;6206;53.100;11.098;2022-10-16T11:31:24;1.38;;;0.73;;
12286;SDS011;6206;53.100;11.098;2022-10-16T11:34:00;2.23;;;0.70;;
12286;SDS011;6206;53.100;11.098;2022-10-16T11:36:35;2.00;;;0.70;;
12286;SDS011;6206;53.100;11.098;2022-10-16T11:39:08;6.07;;;2.67;;
12286;SDS011;6206;53.100;11.098;2022-10-16T11:41:45;1.23;;;0.70;;
12286;SDS011;6206;53.100;11.098;2022-10-16T11:44:33;0.83;;;0.60;;
12286;SDS011;6206;53.100;11.098;2022-10-16T11:47:09;1.90;;;0.70;;
12286;SDS011;6206;53.100;11.098;2022-10-16T11:49:45;1.70;;;0.75;;
12286;SDS011;6206;53.100;11.098;2022-10-16T11:52:19;1.90;;;0.75;;
12286;SDS011;6206;53.100;11.098;2022-10-16T11:54:50;1.98;;;0.98;;
12286;SDS011;6206;53.100;11.098;2022-10-16T11:57:22;0.68;;;0.60;;
12286;SDS011;6206;53.100;11.098;2022-10-16T11:59:53;1.15;;;0.50;;
12286;SDS011;6206;53.100;11.098;2022-10-16T12:02:30;1.38;;;0.80;;
12286;SDS011;6206;53.100;11.098;2022-10-16T12:05:11;1.63;;;0.80;;
12286;SDS011;6206;53.100;11.098;2022-10-16T12:07:48;0.93;;;0.60;;
12286;SDS011;6206;53.100;11.098;2022-10-16T12:10:23;2.28;;;0.88;;
12286;SDS011;6206;53.100;11.098;2022-10-16T12:12:52;2.15;;;0.70;;
12286;SDS011;6206;53.100;11.098;2022-10-16T12:15:21;1.50;;;0.80;;
12286;SDS011;6206;53.100;11.098;2022-10-16T12:17:50;1.75;;;0.60;;
12286;SDS011;6206;53.100;11.098;2022-10-16T12:20:27;0.80;;;0.60;;
12286;SDS011;6206;53.100;11.098;2022-10-16T12:22:58;1.15;;;0.65;;
12286;SDS011;6206;53.100;11.098;2022-10-16T12:25:28;1.80;;;0.60;;
12286;SDS011;6206;53.100;11.098;2022-10-16T12:28:00;1.92;;;0.60;;
12286;SDS011;6206;53.100;11.098;2022-10-16T12:30:29;1.33;;;0.60;;
12286;SDS011;6206;53.100;11.098;2022-10-16T12:32:58;2.92;;;0.70;;
12286;SDS011;6206;53.100;11.098;2022-10-16T12:35:28;1.75;;;0.80;;
12286;SDS011;6206;53.100;11.098;2022-10-16T12:38:06;2.67;;;0.77;;
12286;SDS011;6206;53.100;11.098;2022-10-16T12:40:34;1.40;;;0.50;;
12286;SDS011;6206;53.100;11.098;2022-10-16T12:43:11;0.93;;;0.55;;
12286;SDS011;6206;53.100;11.098;2022-10-16T12:45:39;0.68;;;0.50;;
12286;SDS011;6206;53.100;11.098;2022-10-16T12:48:18;1.40;;;0.70;;
12286;SDS011;6206;53.100;11.098;2022-10-16T12:50:47;1.00;;;0.65;;
12286;SDS011;6206;53.100;11.098;2022-10-16T12:53:19;0.97;;;0.60;;
12286;SDS011;6206;53.100;11.098;2022-10-16T12:55:52;2.25;;;0.70;;
12286;SDS011;6206;53.100;11.098;2022-10-16T12:58:32;1.63;;;0.80;;
12286;SDS011;6206;53.100;11.098;2022-10-16T13:01:12;1.45;;;0.70;;
12286;SDS011;6206;53.100;11.098;2022-10-16T13:03:57;2.43;;;0.80;;
12286;SDS011;6206;53.100;11.098;2022-10-16T13:06:37;2.88;;;1.33;;
12286;SDS011;6206;53.100;11.098;2022-10-16T13:12:11;1.20;;;0.60;;
12286;SDS011;6206;53.100;11.098;2022-10-16T13:17:45;1.90;;;0.73;;
12286;SDS011;6206;53.100;11.098;2022-10-16T13:20:21;1.50;;;0.70;;
12286;SDS011;6206;53.100;11.098;2022-10-16T13:22:57;1.15;;;0.55;;
12286;SDS011;6206;53.100;11.098;2022-10-16T13:25:34;2.63;;;0.60;;
12286;SDS011;6206;53.100;11.098;2022-10-16T13:28:08;2.13;;;0.60;;
12286;SDS011;6206;53.100;11.098;2022-10-16T13:30:37;3.22;;;0.73;;
12286;SDS011;6206;53.100;11.098;2022-10-16T13:33:06;2.97;;;1.02;;
12286;SDS011;6206;53.100;11.098;2022-10-16T13:35:46;1.92;;;0.95;;
12286;SDS011;6206;53.100;11.098;2022-10-16T13:38:16;3.00;;;0.87;;
12286;SDS011;6206;53.100;11.098;2022-10-16T13:40:52;0.82;;;0.68;;
12286;SDS011;6206;53.100;11.098;2022-10-16T13:43:22;2.47;;;0.70;;
12286;SDS011;6206;53.100;11.098;2022-10-16T13:45:54;1.25;;;0.60;;
12286;SDS011;6206;53.100;11.098;2022-10-16T13:48:22;1.00;;;0.70;;
12286;SDS011;6206;53.100;11.098;2022-10-16T13:51:02;1.90;;;0.80;;
12286;SDS011;6206;53.100;11.098;2022-10-16T13:53:31;1.30;;;0.70;;
12286;SDS011;6206;53.100;11.098;2022-10-16T13:56:01;1.07;;;0.70;;
12286;SDS011;6206;53.100;11.098;2022-10-16T13:58:29;2.58;;;0.90;;
12286;SDS011;6206;53.100;11.098;2022-10-16T14:00:57;1.63;;;0.80;;
12286;SDS011;6206;53.100;11.098;2022-10-16T14:03:26;1.90;;;0.63;;
12286;SDS011;6206;53.100;11.098;2022-10-16T14:05:54;1.35;;;0.57;;
12286;SDS011;6206;53.100;11.098;2022-10-16T14:15:52;2.53;;;0.90;;
12286;SDS011;6206;53.100;11.098;2022-10-16T14:18:20;2.00;;;0.80;;
12286;SDS011;6206;53.100;11.098;2022-10-16T14:20:49;1.10;;;0.80;;
12286;SDS011;6206;53.100;11.098;2022-10-16T14:23:19;2.35;;;0.70;;
12286;SDS011;6206;53.100;11.098;2022-10-16T14:25:47;2.17;;;0.82;;
12286;SDS011;6206;53.100;11.098;2022-10-16T14:28:15;2.33;;;0.75;;
12286;SDS011;6206;53.100;11.098;2022-10-16T14:30:51;1.55;;;0.80;;
12286;SDS011;6206;53.100;11.098;2022-10-16T14:33:20;1.35;;;0.80;;
12286;SDS011;6206;53.100;11.098;2022-10-16T14:35:59;1.83;;;0.70;;
12286;SDS011;6206;53.100;11.098;2022-10-16T14:38:28;2.47;;;0.80;;
12286;SDS011;6206;53.100;11.098;2022-10-16T14:40:56;2.00;;;0.90;;
12286;SDS011;6206;53.100;11.098;2022-10-16T14:43:26;2.60;;;0.85;;
12286;SDS011;6206;53.100;11.098;2022-10-16T14:45:59;1.80;;;0.73;;
12286;SDS011;6206;53.100;11.098;2022-10-16T14:48:28;1.13;;;0.80;;
12286;SDS011;6206;53.100;11.098;2022-10-16T14:50:55;2.03;;;0.85;;
12286;SDS011;6206;53.100;11.098;2022-10-16T14:53:22;2.70;;;0.70;;
12286;SDS011;6206;53.100;11.098;2022-10-16T14:55:48;1.88;;;0.93;;
12286;SDS011;6206;53.100;11.098;2022-10-16T14:58:16;3.00;;;0.85;;
12286;SDS011;6206;53.100;11.098;2022-10-16T15:00:45;1.42;;;0.82;;
12286;SDS011;6206;53.100;11.098;2022-10-16T15:03:13;1.98;;;0.82;;
12286;SDS011;6206;53.100;11.098;2022-10-16T15:05:40;2.03;;;0.85;;
12286;SDS011;6206;53.100;11.098;2022-10-16T15:08:07;1.33;;;0.75;;
12286;SDS011;6206;53.100;11.098;2022-10-16T15:10:36;2.85;;;1.00;;
12286;SDS011;6206;53.100;11.098;2022-10-16T15:13:05;2.83;;;1.00;;
12286;SDS011;6206;53.100;11.098;2022-10-16T15:15:33;1.58;;;1.00;;
12286;SDS011;6206;53.100;11.098;2022-10-16T15:18:02;1.60;;;1.00;;
12286;SDS011;6206;53.100;11.098;2022-10-16T15:20:31;1.77;;;1.10;;